Terminal Aerodrome Forecast
Issued by NWS Jackson, KY

Home | Current Version | Previous Version | Graphics & Text | Print | Product List | Glossary On
Versions: 1 2 3 4 5 6 7 8 9 10 11 12 13 14 15 16
000
FTUS43 KJKL 281720
TAFLOZ
TAF
KLOZ 281720Z 2818/2918 22007KT P6SM SCT030 SCT060
     FM281900 VRB06KT P6SM VCTS SCT030CB SCT060
     FM290100 VRB04KT 5SM BR SCT030
     FM290400 00000KT 3SM BR SCT030
     FM290800 00000KT 1/2SM FG BKN002
     FM291400 VRB05KT P6SM BKN040=

USA.gov is the U.S. government's official web portal to all federal, state and local government web resources and services.